sensor_id;sensor_type;location;lat;lon;timestamp;pressure;altitude;pressure_sealevel;temperature;humidity
84884;BME280;75145;49.188;8.122;2023-12-28T00:01:55;99987.47;;;5.69;72.53
84884;BME280;75145;49.188;8.122;2023-12-28T00:04:20;99997.22;;;5.67;72.70
84884;BME280;75145;49.188;8.122;2023-12-28T00:06:46;99989.69;;;5.61;72.67
84884;BME280;75145;49.188;8.122;2023-12-28T00:09:11;99986.31;;;5.59;72.03
84884;BME280;75145;49.188;8.122;2023-12-28T00:11:36;99993.84;;;5.65;71.55
84884;BME280;75145;49.188;8.122;2023-12-28T00:14:02;99995.75;;;5.77;71.02
84884;BME280;75145;49.188;8.122;2023-12-28T00:16:27;99981.63;;;5.80;69.95
84884;BME280;75145;49.188;8.122;2023-12-28T00:18:53;99968.97;;;5.72;70.19
84884;BME280;75145;49.188;8.122;2023-12-28T00:21:18;99980.00;;;5.93;69.22
84884;BME280;75145;49.188;8.122;2023-12-28T00:23:43;99972.13;;;5.93;69.27
84884;BME280;75145;49.188;8.122;2023-12-28T00:26:08;99976.00;;;6.02;68.72
84884;BME280;75145;49.188;8.122;2023-12-28T00:28:34;99968.34;;;6.13;66.87
84884;BME280;75145;49.188;8.122;2023-12-28T00:30:59;99976.25;;;6.27;66.12
84884;BME280;75145;49.188;8.122;2023-12-28T00:33:24;99969.63;;;6.36;66.53
84884;BME280;75145;49.188;8.122;2023-12-28T00:35:50;99977.25;;;6.55;64.37
84884;BME280;75145;49.188;8.122;2023-12-28T00:38:15;99981.38;;;6.73;64.03
84884;BME280;75145;49.188;8.122;2023-12-28T00:40:40;99969.75;;;6.77;63.59
84884;BME280;75145;49.188;8.122;2023-12-28T00:43:06;99967.31;;;6.74;63.60
84884;BME280;75145;49.188;8.122;2023-12-28T00:45:32;99968.06;;;6.76;63.81
84884;BME280;75145;49.188;8.122;2023-12-28T00:47:57;99962.97;;;6.73;64.19
84884;BME280;75145;49.188;8.122;2023-12-28T00:50:22;99978.56;;;6.76;64.19
84884;BME280;75145;49.188;8.122;2023-12-28T00:52:48;99963.66;;;6.76;62.60
84884;BME280;75145;49.188;8.122;2023-12-28T00:55:13;99969.75;;;6.77;63.62
84884;BME280;75145;49.188;8.122;2023-12-28T00:57:38;99984.56;;;6.78;62.52
84884;BME280;75145;49.188;8.122;2023-12-28T01:00:04;99984.66;;;6.76;62.98
84884;BME280;75145;49.188;8.122;2023-12-28T01:02:30;99989.09;;;6.76;62.46
84884;BME280;75145;49.188;8.122;2023-12-28T01:04:55;99990.13;;;6.73;62.99
84884;BME280;75145;49.188;8.122;2023-12-28T01:07:20;99986.91;;;6.68;63.57
84884;BME280;75145;49.188;8.122;2023-12-28T01:09:46;99987.56;;;6.72;62.95
84884;BME280;75145;49.188;8.122;2023-12-28T01:12:11;100000.69;;;6.72;63.29
84884;BME280;75145;49.188;8.122;2023-12-28T01:14:37;99996.78;;;6.79;62.76
84884;BME280;75145;49.188;8.122;2023-12-28T01:17:02;100000.78;;;6.70;62.92
84884;BME280;75145;49.188;8.122;2023-12-28T01:19:27;99995.72;;;6.82;62.36
84884;BME280;75145;49.188;8.122;2023-12-28T01:21:53;100014.78;;;6.85;62.45
84884;BME280;75145;49.188;8.122;2023-12-28T01:24:18;99992.06;;;6.84;62.21
84884;BME280;75145;49.188;8.122;2023-12-28T01:26:43;99991.72;;;6.90;62.10
84884;BME280;75145;49.188;8.122;2023-12-28T01:29:09;99987.94;;;6.94;61.30
84884;BME280;75145;49.188;8.122;2023-12-28T01:31:35;100006.94;;;6.99;60.94
84884;BME280;75145;49.188;8.122;2023-12-28T01:34:00;99999.59;;;7.04;62.09
84884;BME280;75145;49.188;8.122;2023-12-28T01:36:26;100007.34;;;7.20;60.52
84884;BME280;75145;49.188;8.122;2023-12-28T01:38:52;99998.06;;;7.29;60.60
84884;BME280;75145;49.188;8.122;2023-12-28T01:41:17;100018.53;;;7.38;59.79
84884;BME280;75145;49.188;8.122;2023-12-28T01:43:42;100014.00;;;7.40;60.10
84884;BME280;75145;49.188;8.122;2023-12-28T01:46:16;100019.44;;;7.51;59.88
84884;BME280;75145;49.188;8.122;2023-12-28T01:48:44;100025.97;;;7.58;59.55
84884;BME280;75145;49.188;8.122;2023-12-28T01:51:11;100023.72;;;7.66;58.44
84884;BME280;75145;49.188;8.122;2023-12-28T01:53:37;100019.72;;;7.74;58.03
84884;BME280;75145;49.188;8.122;2023-12-28T01:56:02;100022.41;;;7.86;59.04
84884;BME280;75145;49.188;8.122;2023-12-28T01:58:28;100016.88;;;7.91;57.89
84884;BME280;75145;49.188;8.122;2023-12-28T02:00:56;100021.91;;;7.94;58.70
84884;BME280;75145;49.188;8.122;2023-12-28T02:03:22;100018.44;;;7.93;58.07
84884;BME280;75145;49.188;8.122;2023-12-28T02:05:47;100018.66;;;7.90;58.54
84884;BME280;75145;49.188;8.122;2023-12-28T02:08:13;100027.19;;;7.94;57.85
84884;BME280;75145;49.188;8.122;2023-12-28T02:10:39;100022.97;;;7.91;58.71
84884;BME280;75145;49.188;8.122;2023-12-28T02:13:04;100025.59;;;7.91;57.96
84884;BME280;75145;49.188;8.122;2023-12-28T02:15:30;100033.63;;;7.90;59.37
84884;BME280;75145;49.188;8.122;2023-12-28T02:18:01;100032.25;;;7.97;58.28
84884;BME280;75145;49.188;8.122;2023-12-28T02:20:29;100026.97;;;7.97;58.74
84884;BME280;75145;49.188;8.122;2023-12-28T02:22:56;100029.63;;;7.97;57.98
84884;BME280;75145;49.188;8.122;2023-12-28T02:25:21;100029.41;;;8.00;57.39
84884;BME280;75145;49.188;8.122;2023-12-28T02:27:48;100035.00;;;7.95;57.93
84884;BME280;75145;49.188;8.122;2023-12-28T02:30:18;100039.03;;;8.01;57.79
84884;BME280;75145;49.188;8.122;2023-12-28T02:35:33;100037.97;;;8.04;57.34
84884;BME280;75145;49.188;8.122;2023-12-28T02:38:03;100030.72;;;8.07;58.20
84884;BME280;75145;49.188;8.122;2023-12-28T02:40:32;100031.06;;;8.15;57.16
84884;BME280;75145;49.188;8.122;2023-12-28T02:43:00;100029.59;;;8.24;56.44
84884;BME280;75145;49.188;8.122;2023-12-28T02:45:25;100036.81;;;8.35;56.09
84884;BME280;75145;49.188;8.122;2023-12-28T02:47:52;100024.81;;;8.43;55.62
84884;BME280;75145;49.188;8.122;2023-12-28T02:50:17;100018.28;;;8.49;55.61
84884;BME280;75145;49.188;8.122;2023-12-28T02:52:42;100027.38;;;8.70;53.67
84884;BME280;75145;49.188;8.122;2023-12-28T02:55:08;100021.88;;;8.73;54.85
84884;BME280;75145;49.188;8.122;2023-12-28T02:57:33;100031.69;;;8.71;54.51
84884;BME280;75145;49.188;8.122;2023-12-28T03:00:04;100024.41;;;8.75;54.93
84884;BME280;75145;49.188;8.122;2023-12-28T03:02:29;100034.09;;;8.74;55.32
84884;BME280;75145;49.188;8.122;2023-12-28T03:04:54;100051.44;;;8.78;54.11
84884;BME280;75145;49.188;8.122;2023-12-28T03:07:20;100035.78;;;8.75;54.74
84884;BME280;75145;49.188;8.122;2023-12-28T03:09:46;100041.41;;;8.71;55.92
84884;BME280;75145;49.188;8.122;2023-12-28T03:12:11;100034.94;;;8.62;57.23
84884;BME280;75145;49.188;8.122;2023-12-28T03:14:36;100036.56;;;8.65;58.83
84884;BME280;75145;49.188;8.122;2023-12-28T03:17:02;100038.75;;;8.58;59.78
84884;BME280;75145;49.188;8.122;2023-12-28T03:19:27;100043.50;;;8.53;60.37
84884;BME280;75145;49.188;8.122;2023-12-28T03:21:52;100033.56;;;8.44;59.99
84884;BME280;75145;49.188;8.122;2023-12-28T03:24:17;100039.78;;;8.43;60.89
84884;BME280;75145;49.188;8.122;2023-12-28T03:26:43;100046.97;;;8.41;60.81
84884;BME280;75145;49.188;8.122;2023-12-28T03:29:08;100052.63;;;8.35;61.00
84884;BME280;75145;49.188;8.122;2023-12-28T03:31:33;100050.91;;;8.34;60.36
84884;BME280;75145;49.188;8.122;2023-12-28T03:34:03;100048.69;;;8.27;60.93
84884;BME280;75145;49.188;8.122;2023-12-28T03:36:28;100043.31;;;8.29;60.91
84884;BME280;75145;49.188;8.122;2023-12-28T03:38:54;100050.38;;;8.29;61.33
84884;BME280;75145;49.188;8.122;2023-12-28T03:41:19;100030.97;;;8.30;61.90
84884;BME280;75145;49.188;8.122;2023-12-28T03:43:45;100033.63;;;8.30;62.54
84884;BME280;75145;49.188;8.122;2023-12-28T03:46:11;100023.28;;;8.26;63.17
84884;BME280;75145;49.188;8.122;2023-12-28T03:48:37;100041.25;;;8.34;63.97
84884;BME280;75145;49.188;8.122;2023-12-28T03:51:03;100022.34;;;8.27;65.02
84884;BME280;75145;49.188;8.122;2023-12-28T03:53:28;100033.00;;;8.26;66.09
84884;BME280;75145;49.188;8.122;2023-12-28T03:55:54;100029.69;;;8.22;66.63
84884;BME280;75145;49.188;8.122;2023-12-28T03:58:19;100028.00;;;8.21;69.39
84884;BME280;75145;49.188;8.122;2023-12-28T04:00:44;100028.94;;;8.20;70.08
84884;BME280;75145;49.188;8.122;2023-12-28T04:03:10;100036.97;;;8.19;71.70
84884;BME280;75145;49.188;8.122;2023-12-28T04:05:35;100032.00;;;8.14;72.10
84884;BME280;75145;49.188;8.122;2023-12-28T04:08:00;100041.28;;;8.20;74.18
84884;BME280;75145;49.188;8.122;2023-12-28T04:10:31;100046.44;;;8.21;75.54
84884;BME280;75145;49.188;8.122;2023-12-28T04:12:57;100053.00;;;8.29;78.81
84884;BME280;75145;49.188;8.122;2023-12-28T04:15:23;100048.75;;;8.40;80.60
84884;BME280;75145;49.188;8.122;2023-12-28T04:17:49;100046.53;;;8.47;80.51
84884;BME280;75145;49.188;8.122;2023-12-28T04:20:14;100057.19;;;8.58;81.16
84884;BME280;75145;49.188;8.122;2023-12-28T04:22:40;100048.69;;;8.67;81.40
84884;BME280;75145;49.188;8.122;2023-12-28T04:25:06;100043.41;;;8.67;81.93
84884;BME280;75145;49.188;8.122;2023-12-28T04:27:31;100054.47;;;8.72;81.89
84884;BME280;75145;49.188;8.122;2023-12-28T04:29:56;100058.56;;;8.76;82.46
84884;BME280;75145;49.188;8.122;2023-12-28T04:32:22;100060.38;;;8.76;83.42
84884;BME280;75145;49.188;8.122;2023-12-28T04:34:49;100061.97;;;8.78;83.19
84884;BME280;75145;49.188;8.122;2023-12-28T04:37:14;100053.13;;;8.79;83.50
84884;BME280;75145;49.188;8.122;2023-12-28T04:39:40;100059.88;;;8.83;84.38
84884;BME280;75145;49.188;8.122;2023-12-28T04:42:05;100060.72;;;8.84;84.44
84884;BME280;75145;49.188;8.122;2023-12-28T04:44:30;100052.69;;;8.85;84.39
84884;BME280;75145;49.188;8.122;2023-12-28T04:46:56;100045.50;;;8.88;84.93
84884;BME280;75145;49.188;8.122;2023-12-28T04:49:21;100055.88;;;8.91;85.19
84884;BME280;75145;49.188;8.122;2023-12-28T04:51:46;100048.69;;;8.93;84.65
84884;BME280;75145;49.188;8.122;2023-12-28T04:54:12;100052.47;;;8.89;85.43
84884;BME280;75145;49.188;8.122;2023-12-28T04:56:37;100055.88;;;8.91;85.05
84884;BME280;75145;49.188;8.122;2023-12-28T04:59:03;100056.59;;;8.93;85.25
84884;BME280;75145;49.188;8.122;2023-12-28T05:01:28;100051.63;;;9.01;84.41
84884;BME280;75145;49.188;8.122;2023-12-28T05:03:56;100059.53;;;9.01;85.22
84884;BME280;75145;49.188;8.122;2023-12-28T05:06:22;100061.97;;;9.04;84.56
84884;BME280;75145;49.188;8.122;2023-12-28T05:08:47;100056.72;;;9.04;84.45
84884;BME280;75145;49.188;8.122;2023-12-28T05:11:13;100060.81;;;9.08;84.81
84884;BME280;75145;49.188;8.122;2023-12-28T05:13:38;100068.72;;;9.08;84.60
84884;BME280;75145;49.188;8.122;2023-12-28T05:16:03;100065.56;;;9.16;83.81
84884;BME280;75145;49.188;8.122;2023-12-28T05:18:29;100067.38;;;9.15;84.67
84884;BME280;75145;49.188;8.122;2023-12-28T05:20:54;100059.22;;;9.18;83.64
84884;BME280;75145;49.188;8.122;2023-12-28T05:23:20;100064.28;;;9.21;84.18
84884;BME280;75145;49.188;8.122;2023-12-28T05:25:45;100058.91;;;9.23;83.62
84884;BME280;75145;49.188;8.122;2023-12-28T05:28:11;100063.66;;;9.30;83.30
84884;BME280;75145;49.188;8.122;2023-12-28T05:30:36;100067.03;;;9.32;82.94
84884;BME280;75145;49.188;8.122;2023-12-28T05:33:03;100070.38;;;9.34;82.74
84884;BME280;75145;49.188;8.122;2023-12-28T05:35:28;100061.63;;;9.34;82.70
84884;BME280;75145;49.188;8.122;2023-12-28T05:37:53;100077.34;;;9.35;83.89
84884;BME280;75145;49.188;8.122;2023-12-28T05:40:19;100060.69;;;9.22;85.08
84884;BME280;75145;49.188;8.122;2023-12-28T05:42:44;100081.38;;;9.28;85.10
84884;BME280;75145;49.188;8.122;2023-12-28T05:45:10;100073.38;;;9.17;85.10
84884;BME280;75145;49.188;8.122;2023-12-28T05:47:35;100072.72;;;9.13;86.32
84884;BME280;75145;49.188;8.122;2023-12-28T05:50:01;100079.91;;;9.11;86.54
84884;BME280;75145;49.188;8.122;2023-12-28T05:52:28;100075.91;;;9.06;86.63
84884;BME280;75145;49.188;8.122;2023-12-28T05:54:53;100072.66;;;9.02;86.69
84884;BME280;75145;49.188;8.122;2023-12-28T05:57:20;100084.97;;;9.02;87.21
84884;BME280;75145;49.188;8.122;2023-12-28T05:59:45;100095.53;;;9.02;87.13
84884;BME280;75145;49.188;8.122;2023-12-28T06:02:11;100090.69;;;8.96;87.47
84884;BME280;75145;49.188;8.122;2023-12-28T06:04:36;100085.50;;;8.94;87.48
84884;BME280;75145;49.188;8.122;2023-12-28T06:07:04;100089.31;;;8.90;88.08
84884;BME280;75145;49.188;8.122;2023-12-28T06:09:30;100095.09;;;8.95;87.70
84884;BME280;75145;49.188;8.122;2023-12-28T06:11:56;100091.84;;;8.92;88.82
84884;BME280;75145;49.188;8.122;2023-12-28T06:14:21;100097.84;;;8.94;87.70
84884;BME280;75145;49.188;8.122;2023-12-28T06:16:47;100104.31;;;8.90;88.42
84884;BME280;75145;49.188;8.122;2023-12-28T06:19:12;100110.31;;;8.92;87.86
84884;BME280;75145;49.188;8.122;2023-12-28T06:21:38;100114.75;;;8.91;88.38
84884;BME280;75145;49.188;8.122;2023-12-28T06:24:03;100114.41;;;8.96;89.22
84884;BME280;75145;49.188;8.122;2023-12-28T06:26:29;100107.34;;;8.96;86.66
84884;BME280;75145;49.188;8.122;2023-12-28T06:28:54;100107.13;;;8.99;87.27
84884;BME280;75145;49.188;8.122;2023-12-28T06:31:19;100124.53;;;9.02;87.72
84884;BME280;75145;49.188;8.122;2023-12-28T06:33:45;100129.06;;;9.00;87.76
84884;BME280;75145;49.188;8.122;2023-12-28T06:36:11;100130.03;;;8.99;86.91
84884;BME280;75145;49.188;8.122;2023-12-28T06:38:37;100123.81;;;9.00;87.61
84884;BME280;75145;49.188;8.122;2023-12-28T06:41:10;100135.31;;;8.99;87.22
84884;BME280;75145;49.188;8.122;2023-12-28T06:43:35;100146.59;;;9.01;87.09
84884;BME280;75145;49.188;8.122;2023-12-28T06:46:00;100133.63;;;8.98;88.18
84884;BME280;75145;49.188;8.122;2023-12-28T06:48:25;100132.25;;;8.92;88.07
84884;BME280;75145;49.188;8.122;2023-12-28T06:50:51;100121.25;;;8.85;89.14
84884;BME280;75145;49.188;8.122;2023-12-28T06:53:17;100119.56;;;8.84;88.99
84884;BME280;75145;49.188;8.122;2023-12-28T06:55:42;100121.16;;;8.87;88.69
84884;BME280;75145;49.188;8.122;2023-12-28T06:58:08;100124.75;;;8.86;88.46
84884;BME280;75145;49.188;8.122;2023-12-28T07:00:33;100118.63;;;8.85;88.41
84884;BME280;75145;49.188;8.122;2023-12-28T07:02:58;100115.78;;;8.89;88.83
84884;BME280;75145;49.188;8.122;2023-12-28T07:05:24;100119.56;;;8.84;87.84
84884;BME280;75145;49.188;8.122;2023-12-28T07:07:49;100109.88;;;8.85;88.07
84884;BME280;75145;49.188;8.122;2023-12-28T07:10:14;100119.56;;;8.84;88.58
84884;BME280;75145;49.188;8.122;2023-12-28T07:12:40;100118.72;;;8.84;87.13
84884;BME280;75145;49.188;8.122;2023-12-28T07:15:05;100119.34;;;8.88;87.07
84884;BME280;75145;49.188;8.122;2023-12-28T07:17:31;100132.44;;;8.89;87.97
84884;BME280;75145;49.188;8.122;2023-12-28T07:19:56;100137.63;;;8.91;87.55
84884;BME280;75145;49.188;8.122;2023-12-28T07:22:21;100123.50;;;8.92;87.18
84884;BME280;75145;49.188;8.122;2023-12-28T07:24:47;100127.09;;;8.91;87.57
84884;BME280;75145;49.188;8.122;2023-12-28T07:27:12;100131.19;;;8.95;87.31
84884;BME280;75145;49.188;8.122;2023-12-28T07:29:37;100144.28;;;8.96;86.89
84884;BME280;75145;49.188;8.122;2023-12-28T07:32:03;100143.00;;;9.02;86.11
84884;BME280;75145;49.188;8.122;2023-12-28T07:34:29;100130.03;;;8.99;85.59
84884;BME280;75145;49.188;8.122;2023-12-28T07:36:54;100134.16;;;9.03;86.49
84884;BME280;75145;49.188;8.122;2023-12-28T07:39:20;100145.34;;;9.06;86.34
84884;BME280;75145;49.188;8.122;2023-12-28T07:41:45;100140.91;;;9.07;86.37
84884;BME280;75145;49.188;8.122;2023-12-28T07:44:10;100146.19;;;9.07;86.18
84884;BME280;75145;49.188;8.122;2023-12-28T07:46:35;100135.09;;;9.02;85.57
84884;BME280;75145;49.188;8.122;2023-12-28T07:49:01;100148.09;;;9.05;86.26
84884;BME280;75145;49.188;8.122;2023-12-28T07:51:26;100151.47;;;9.07;85.90
84884;BME280;75145;49.188;8.122;2023-12-28T07:53:51;100131.31;;;9.06;86.55
84884;BME280;75145;49.188;8.122;2023-12-28T07:56:17;100136.50;;;9.07;85.83
84884;BME280;75145;49.188;8.122;2023-12-28T07:58:42;100150.53;;;9.08;85.99
84884;BME280;75145;49.188;8.122;2023-12-28T08:01:10;100146.94;;;9.09;85.27
84884;BME280;75145;49.188;8.122;2023-12-28T08:03:36;100152.09;;;9.10;85.22
84884;BME280;75145;49.188;8.122;2023-12-28T08:06:01;100170.28;;;9.15;86.03
84884;BME280;75145;49.188;8.122;2023-12-28T08:08:27;100159.91;;;9.12;85.68
84884;BME280;75145;49.188;8.122;2023-12-28T08:10:52;100150.94;;;9.14;85.61
84884;BME280;75145;49.188;8.122;2023-12-28T08:13:17;100156.88;;;9.18;85.48
84884;BME280;75145;49.188;8.122;2023-12-28T08:15:43;100160.25;;;9.20;84.98
84884;BME280;75145;49.188;8.122;2023-12-28T08:18:08;100165.41;;;9.22;85.16
84884;BME280;75145;49.188;8.122;2023-12-28T08:20:34;100161.94;;;9.21;84.51
84884;BME280;75145;49.188;8.122;2023-12-28T08:22:59;100163.72;;;9.21;84.55
84884;BME280;75145;49.188;8.122;2023-12-28T08:25:24;100167.31;;;9.20;85.17
84884;BME280;75145;49.188;8.122;2023-12-28T08:27:50;100171.53;;;9.22;84.96
84884;BME280;75145;49.188;8.122;2023-12-28T08:30:15;100175.34;;;9.31;84.59
84884;BME280;75145;49.188;8.122;2023-12-28T08:32:41;100157.94;;;9.28;84.62
84884;BME280;75145;49.188;8.122;2023-12-28T08:35:06;100166.03;;;9.25;84.03
84884;BME280;75145;49.188;8.122;2023-12-28T08:37:32;100171.31;;;9.25;83.88
84884;BME280;75145;49.188;8.122;2023-12-28T08:39:58;100177.34;;;9.27;85.06
84884;BME280;75145;49.188;8.122;2023-12-28T08:42:23;100171.31;;;9.25;84.12
84884;BME280;75145;49.188;8.122;2023-12-28T08:44:50;100167.94;;;9.23;85.32
84884;BME280;75145;49.188;8.122;2023-12-28T08:47:15;100174.19;;;9.22;85.08
84884;BME280;75145;49.188;8.122;2023-12-28T08:49:40;100180.91;;;9.26;84.68
84884;BME280;75145;49.188;8.122;2023-12-28T08:52:06;100164.13;;;9.27;84.57
84884;BME280;75145;49.188;8.122;2023-12-28T08:54:32;100183.38;;;9.29;84.19
84884;BME280;75145;49.188;8.122;2023-12-28T08:56:57;100187.88;;;9.27;84.72
84884;BME280;75145;49.188;8.122;2023-12-28T08:59:22;100192.97;;;9.30;83.75
84884;BME280;75145;49.188;8.122;2023-12-28T09:01:48;100182.22;;;9.33;84.06
84884;BME280;75145;49.188;8.122;2023-12-28T09:04:13;100189.38;;;9.31;84.52
84884;BME280;75145;49.188;8.122;2023-12-28T09:06:39;100189.38;;;9.31;83.97
84884;BME280;75145;49.188;8.122;2023-12-28T09:09:04;100192.53;;;9.36;83.97
84884;BME280;75145;49.188;8.122;2023-12-28T09:11:31;100192.44;;;9.38;83.55
84884;BME280;75145;49.188;8.122;2023-12-28T09:13:56;100189.06;;;9.36;84.06
84884;BME280;75145;49.188;8.122;2023-12-28T09:16:22;100187.16;;;9.38;84.40
84884;BME280;75145;49.188;8.122;2023-12-28T09:18:47;100190.34;;;9.43;84.00
84884;BME280;75145;49.188;8.122;2023-12-28T09:21:13;100192.03;;;9.44;84.17
84884;BME280;75145;49.188;8.122;2023-12-28T09:23:38;100185.25;;;9.40;83.21
84884;BME280;75145;49.188;8.122;2023-12-28T09:26:05;100193.28;;;9.38;83.94
84884;BME280;75145;49.188;8.122;2023-12-28T09:28:31;100195.81;;;9.40;84.05
84884;BME280;75145;49.188;8.122;2023-12-28T09:30:57;100179.13;;;9.39;83.72
84884;BME280;75145;49.188;8.122;2023-12-28T09:33:22;100200.06;;;9.42;84.00
84884;BME280;75145;49.188;8.122;2023-12-28T09:35:48;100189.28;;;9.46;84.60
84884;BME280;75145;49.188;8.122;2023-12-28T09:38:14;100184.22;;;9.42;84.01
84884;BME280;75145;49.188;8.122;2023-12-28T09:40:43;100189.19;;;9.47;84.41
84884;BME280;75145;49.188;8.122;2023-12-28T09:43:25;100184.00;;;9.46;84.18
84884;BME280;75145;49.188;8.122;2023-12-28T09:45:51;100192.66;;;9.48;84.62
84884;BME280;75145;49.188;8.122;2023-12-28T09:48:17;100193.84;;;9.43;83.71
84884;BME280;75145;49.188;8.122;2023-12-28T09:50:45;100194.78;;;9.42;84.66
84884;BME280;75145;49.188;8.122;2023-12-28T09:53:11;100202.38;;;9.47;84.13
84884;BME280;75145;49.188;8.122;2023-12-28T09:55:37;100193.41;;;9.50;84.31
84884;BME280;75145;49.188;8.122;2023-12-28T09:58:03;100174.28;;;9.46;84.01
84884;BME280;75145;49.188;8.122;2023-12-28T10:00:31;100177.56;;;9.50;83.84
84884;BME280;75145;49.188;8.122;2023-12-28T10:02:56;100163.28;;;9.39;84.16
84884;BME280;75145;49.188;8.122;2023-12-28T10:05:22;100175.13;;;9.47;85.07
84884;BME280;75145;49.188;8.122;2023-12-28T10:07:47;100172.38;;;9.48;85.44
84884;BME280;75145;49.188;8.122;2023-12-28T10:10:13;100176.59;;;9.51;85.34
84884;BME280;75145;49.188;8.122;2023-12-28T10:12:38;100175.56;;;9.53;85.39
84884;BME280;75145;49.188;8.122;2023-12-28T10:15:05;100164.34;;;9.50;84.89
84884;BME280;75145;49.188;8.122;2023-12-28T10:17:33;100165.00;;;9.53;85.10
84884;BME280;75145;49.188;8.122;2023-12-28T10:19:59;100170.91;;;9.57;84.92
84884;BME280;75145;49.188;8.122;2023-12-28T10:22:30;100180.84;;;9.66;83.81
84884;BME280;75145;49.188;8.122;2023-12-28T10:24:55;100174.78;;;9.64;84.12
84884;BME280;75145;49.188;8.122;2023-12-28T10:27:21;100174.69;;;9.65;84.33
84884;BME280;75145;49.188;8.122;2023-12-28T10:29:46;100176.19;;;9.69;83.79
84884;BME280;75145;49.188;8.122;2023-12-28T10:32:11;100181.03;;;9.63;84.50
84884;BME280;75145;49.188;8.122;2023-12-28T10:34:37;100177.44;;;9.64;85.10
84884;BME280;75145;49.188;8.122;2023-12-28T10:37:02;100177.75;;;9.59;84.64
84884;BME280;75145;49.188;8.122;2023-12-28T10:39:31;100168.88;;;9.60;84.82
84884;BME280;75145;49.188;8.122;2023-12-28T10:41:59;100174.69;;;9.53;85.77
84884;BME280;75145;49.188;8.122;2023-12-28T10:44:31;100167.53;;;9.55;85.21
84884;BME280;75145;49.188;8.122;2023-12-28T10:47:01;100179.97;;;9.53;85.99
84884;BME280;75145;49.188;8.122;2023-12-28T10:49:29;100166.88;;;9.51;86.01
84884;BME280;75145;49.188;8.122;2023-12-28T10:51:55;100160.97;;;9.48;86.13
84884;BME280;75145;49.188;8.122;2023-12-28T10:54:28;100169.00;;;9.46;86.27
84884;BME280;75145;49.188;8.122;2023-12-28T10:57:27;100157.38;;;9.49;86.10
84884;BME280;75145;49.188;8.122;2023-12-28T11:00:00;100155.69;;;9.48;87.35
84884;BME280;75145;49.188;8.122;2023-12-28T11:02:29;100169.84;;;9.47;86.59
84884;BME280;75145;49.188;8.122;2023-12-28T11:04:59;100160.25;;;9.46;88.23
84884;BME280;75145;49.188;8.122;2023-12-28T11:07:26;100160.75;;;9.38;88.66
84884;BME280;75145;49.188;8.122;2023-12-28T11:10:00;100154.22;;;9.31;89.53
84884;BME280;75145;49.188;8.122;2023-12-28T11:12:27;100148.94;;;9.31;89.81
84884;BME280;75145;49.188;8.122;2023-12-28T11:14:53;100147.38;;;9.28;89.87
84884;BME280;75145;49.188;8.122;2023-12-28T11:17:21;100146.31;;;9.31;90.06
84884;BME280;75145;49.188;8.122;2023-12-28T11:19:50;100142.00;;;9.30;90.89
84884;BME280;75145;49.188;8.122;2023-12-28T11:22:17;100144.28;;;9.34;89.72
84884;BME280;75145;49.188;8.122;2023-12-28T11:24:42;100153.56;;;9.27;90.66
84884;BME280;75145;49.188;8.122;2023-12-28T11:27:08;100130.78;;;9.26;90.37
84884;BME280;75145;49.188;8.122;2023-12-28T11:29:34;100134.38;;;9.25;91.03
84884;BME280;75145;49.188;8.122;2023-12-28T11:32:00;100128.25;;;9.25;91.42
84884;BME280;75145;49.188;8.122;2023-12-28T11:34:29;100122.00;;;9.26;91.97
84884;BME280;75145;49.188;8.122;2023-12-28T11:36:56;100123.06;;;9.23;91.51
84884;BME280;75145;49.188;8.122;2023-12-28T11:39:41;100131.94;;;9.22;91.33
84884;BME280;75145;49.188;8.122;2023-12-28T11:42:09;100128.69;;;9.19;91.37
84884;BME280;75145;49.188;8.122;2023-12-28T11:44:40;100131.00;;;9.23;91.96
84884;BME280;75145;49.188;8.122;2023-12-28T11:49:38;100125.50;;;9.26;92.41
84884;BME280;75145;49.188;8.122;2023-12-28T11:52:06;100116.44;;;9.18;91.93
84884;BME280;75145;49.188;8.122;2023-12-28T11:54:32;100124.47;;;9.16;92.32
84884;BME280;75145;49.188;8.122;2023-12-28T11:56:57;100117.50;;;9.15;92.31
84884;BME280;75145;49.188;8.122;2023-12-28T11:59:22;100125.50;;;9.13;92.83
84884;BME280;75145;49.188;8.122;2023-12-28T12:01:54;100122.13;;;9.11;92.76
84884;BME280;75145;49.188;8.122;2023-12-28T12:04:20;100126.88;;;9.06;92.42
84884;BME280;75145;49.188;8.122;2023-12-28T12:06:46;100128.91;;;9.03;92.86
84884;BME280;75145;49.188;8.122;2023-12-28T12:09:12;100114.75;;;9.04;92.64
84884;BME280;75145;49.188;8.122;2023-12-28T12:11:38;100117.91;;;9.09;92.50
84884;BME280;75145;49.188;8.122;2023-12-28T12:14:07;100114.09;;;9.13;92.41
84884;BME280;75145;49.188;8.122;2023-12-28T12:16:35;100113.25;;;9.12;92.24
84884;BME280;75145;49.188;8.122;2023-12-28T12:19:00;100116.94;;;9.10;91.78
84884;BME280;75145;49.188;8.122;2023-12-28T12:21:26;100119.69;;;9.08;92.76
84884;BME280;75145;49.188;8.122;2023-12-28T12:23:52;100112.63;;;9.09;92.86
84884;BME280;75145;49.188;8.122;2023-12-28T12:26:20;100122.22;;;9.10;92.31
84884;BME280;75145;49.188;8.122;2023-12-28T12:28:46;100102.06;;;9.09;91.52
84884;BME280;75145;49.188;8.122;2023-12-28T12:31:12;100117.28;;;9.18;92.19
84884;BME280;75145;49.188;8.122;2023-12-28T12:33:39;100110.50;;;9.14;91.78
84884;BME280;75145;49.188;8.122;2023-12-28T12:36:06;100102.50;;;9.16;92.17
84884;BME280;75145;49.188;8.122;2023-12-28T12:38:31;100100.50;;;9.19;90.78
84884;BME280;75145;49.188;8.122;2023-12-28T12:40:58;100101.66;;;9.15;91.45
84884;BME280;75145;49.188;8.122;2023-12-28T12:43:23;100099.94;;;9.14;92.12
84884;BME280;75145;49.188;8.122;2023-12-28T12:45:49;100110.31;;;9.17;91.55
84884;BME280;75145;49.188;8.122;2023-12-28T12:48:14;100106.84;;;9.17;89.65
84884;BME280;75145;49.188;8.122;2023-12-28T12:50:40;100102.91;;;9.22;89.28
84884;BME280;75145;49.188;8.122;2023-12-28T12:53:05;100103.66;;;9.24;89.40
84884;BME280;75145;49.188;8.122;2023-12-28T12:55:30;100105.22;;;9.27;88.81
84884;BME280;75145;49.188;8.122;2023-12-28T12:57:57;100099.31;;;9.36;86.89
84884;BME280;75145;49.188;8.122;2023-12-28T13:00:23;100093.81;;;9.39;86.93
84884;BME280;75145;49.188;8.122;2023-12-28T13:02:52;100093.91;;;9.37;88.04